Time;durP1;ratioP1;P1;durP2;ratioP2;P2;SDS_P1;SDS_P2;PMS_P1;PMS_P2;Temp;Humidity;BMP_temperature;BMP_pressure;BME280_temperature;BME280_humidity;BME280_pressure;Samples;Min_cycle;Max_cycle;Signal;HPM_P1;HPM_P2
2022/09/19 00:02:24;;;;;;;;;;;16.60;98.80;;;;;;4935881;29;19917;-71
2022/09/19 00:04:50;;;;;;;;;;;16.80;98.30;;;;;;4936174;29;20100;-71
2022/09/19 00:07:17;;;;;;;;;;;16.80;98.10;;;;;;4934410;29;19954;-72
2022/09/19 00:09:44;;;;;;;;;;;16.70;98.20;;;;;;4934710;29;19915;-71
2022/09/19 00:12:11;;;;;;;;;;;16.60;97.80;;;;;;4936342;29;19914;-71
2022/09/19 00:14:37;;;;;;;;;;;16.60;97.90;;;;;;4946963;29;19919;-72
2022/09/19 00:17:09;;;;;;;;;;;16.60;98.50;;;;;;4937809;29;19922;-71
2022/09/19 00:19:37;;;;;;;;;;;16.70;99.00;;;;;;4935875;29;19922;-72
2022/09/19 00:22:04;;;;;;;;;;;16.80;99.00;;;;;;4937231;29;19918;-72
2022/09/19 00:24:46;;;;;;;;;;;16.90;98.30;;;;;;4937754;29;19911;-72
2022/09/19 00:27:18;;;;;;;;;;;16.90;97.20;;;;;;4938131;29;20532;-71
2022/09/19 00:29:45;;;;;;;;;;;16.90;97.30;;;;;;4938810;29;19911;-73
2022/09/19 00:32:12;;;;;;;;;;;17.00;98.00;;;;;;4939983;29;19946;-72
2022/09/19 00:34:40;;;;;;;;;;;17.10;97.10;;;;;;4936295;29;19962;-70
2022/09/19 00:37:07;;;;;;;;;;;17.10;97.00;;;;;;4937352;29;19917;-72
2022/09/19 00:39:34;;;;;;;;;;;17.20;96.30;;;;;;4937880;29;19917;-72
2022/09/19 00:42:01;;;;;;;;;;;17.20;96.40;;;;;;4939153;29;19918;-72
2022/09/19 00:44:27;;;;;;;;;;;17.30;96.10;;;;;;4942818;29;19911;-72
2022/09/19 00:47:05;;;;;;;;;;;17.40;96.70;;;;;;4937925;29;19915;-71
2022/09/19 00:49:33;;;;;;;;;;;17.60;96.20;;;;;;4938944;29;19911;-71
2022/09/19 00:52:03;;;;;;;;;;;17.70;95.70;;;;;;4939347;29;19918;-72
2022/09/19 00:54:40;;;;;;;;;;;17.80;95.10;;;;;;4943262;29;19922;-71
2022/09/19 00:57:07;;;;;;;;;;;17.90;95.30;;;;;;4950706;29;19911;-70
2022/09/19 00:59:35;;;;;;;;;;;18.10;95.40;;;;;;4946859;29;19926;-70
2022/09/19 01:02:04;;;;;;;;;;;18.00;94.80;;;;;;4949248;29;19919;-69
2022/09/19 01:04:35;;;;;;;;;;;18.00;94.20;;;;;;4949039;29;19921;-71
2022/09/19 01:07:14;;;;;;;;;;;18.20;95.20;;;;;;4949043;29;20330;-69
2022/09/19 01:09:48;;;;;;;;;;;18.20;93.80;;;;;;4955618;29;20009;-72
2022/09/19 01:12:26;;;;;;;;;;;18.40;93.80;;;;;;4953696;29;19910;-71
2022/09/19 01:14:53;;;;;;;;;;;18.50;93.70;;;;;;4955171;29;20338;-72
2022/09/19 01:17:26;;;;;;;;;;;18.70;93.40;;;;;;4947812;29;19950;-72
2022/09/19 01:20:01;;;;;;;;;;;18.80;93.00;;;;;;4945161;29;19911;-70
2022/09/19 01:22:50;;;;;;;;;;;19.30;92.50;;;;;;4944221;29;20375;-71
2022/09/19 01:25:34;;;;;;;;;;;19.50;92.00;;;;;;4943669;29;19922;-71
2022/09/19 01:28:11;;;;;;;;;;;19.30;91.70;;;;;;4944223;29;19911;-71
2022/09/19 01:30:41;;;;;;;;;;;19.30;91.30;;;;;;4943782;29;19918;-72
2022/09/19 01:33:18;;;;;;;;;;;19.40;92.60;;;;;;4943120;29;19965;-71
2022/09/19 01:35:50;;;;;;;;;;;19.30;92.00;;;;;;4944100;29;19925;-72
2022/09/19 01:38:22;;;;;;;;;;;19.10;92.20;;;;;;4943566;29;20488;-71
2022/09/19 01:41:03;;;;;;;;;;;18.90;91.90;;;;;;4943770;29;19918;-72
2022/09/19 01:43:30;;;;;;;;;;;18.80;91.90;;;;;;4950042;29;19966;-73
2022/09/19 01:46:01;;;;;;;;;;;18.80;92.60;;;;;;4950046;29;19950;-70
2022/09/19 01:48:36;;;;;;;;;;;18.80;92.40;;;;;;4946270;29;19918;-68
2022/09/19 01:51:03;;;;;;;;;;;18.70;92.20;;;;;;4954920;29;20341;-71
2022/09/19 01:53:45;;;;;;;;;;;18.50;92.20;;;;;;4951812;29;19982;-68
2022/09/19 01:56:32;;;;;;;;;;;18.50;92.40;;;;;;4945308;29;20378;-73
2022/09/19 01:59:22;;;;;;;;;;;18.50;92.40;;;;;;4936775;29;19984;-69
2022/09/19 02:01:51;;;;;;;;;;;18.60;92.60;;;;;;4943710;28;19919;-71
2022/09/19 02:04:28;;;;;;;;;;;18.60;92.70;;;;;;4942444;29;19922;-72
2022/09/19 02:07:13;;;;;;;;;;;18.70;92.40;;;;;;4943091;29;19953;-69
2022/09/19 02:10:15;;;;;;;;;;;18.70;91.60;;;;;;4942780;29;20002;-69
2022/09/19 02:12:42;;;;;;;;;;;18.70;91.70;;;;;;4903556;29;19987;-73
2022/09/19 02:15:12;;;;;;;;;;;18.90;91.90;;;;;;4935000;29;19939;-71
2022/09/19 02:17:44;;;;;;;;;;;19.00;91.40;;;;;;4939778;29;20401;-68
2022/09/19 02:20:23;;;;;;;;;;;18.90;91.30;;;;;;4938437;29;19915;-73
2022/09/19 02:22:51;;;;;;;;;;;18.80;91.60;;;;;;4938720;29;19989;-68
2022/09/19 02:25:21;;;;;;;;;;;18.80;91.80;;;;;;4938154;29;19911;-72
2022/09/19 02:27:54;;;;;;;;;;;18.90;92.00;;;;;;4938221;29;20338;-68
2022/09/19 02:30:21;;;;;;;;;;;18.90;91.10;;;;;;4937846;29;20339;-73
2022/09/19 02:32:49;;;;;;;;;;;18.90;91.70;;;;;;4937640;29;19914;-74
2022/09/19 02:35:19;;;;;;;;;;;18.90;91.70;;;;;;4937403;29;19923;-71
2022/09/19 02:37:47;;;;;;;;;;;18.90;91.40;;;;;;4937430;29;19911;-73
2022/09/19 02:40:23;;;;;;;;;;;18.90;91.40;;;;;;4937498;29;19918;-71
2022/09/19 02:42:54;;;;;;;;;;;19.10;91.40;;;;;;4937115;29;19918;-72
2022/09/19 02:45:29;;;;;;;;;;;19.10;91.20;;;;;;4937163;29;19911;-72
2022/09/19 02:47:59;;;;;;;;;;;19.10;91.20;;;;;;4937236;29;19954;-72
2022/09/19 02:50:31;;;;;;;;;;;19.10;91.70;;;;;;4937128;29;19915;-70
2022/09/19 02:52:59;;;;;;;;;;;19.10;91.30;;;;;;4936620;29;19979;-75
2022/09/19 02:55:28;;;;;;;;;;;19.20;91.30;;;;;;4937018;29;20370;-73
2022/09/19 02:57:57;;;;;;;;;;;19.20;91.70;;;;;;4939302;29;20293;-75
2022/09/19 03:00:25;;;;;;;;;;;19.10;91.70;;;;;;4937661;29;19929;-74
2022/09/19 03:03:00;;;;;;;;;;;19.10;91.60;;;;;;4936593;29;20334;-72
2022/09/19 03:05:28;;;;;;;;;;;19.10;91.20;;;;;;4936914;29;19911;-73
2022/09/19 03:08:09;;;;;;;;;;;19.20;92.20;;;;;;4936483;29;19910;-73
2022/09/19 03:10:37;;;;;;;;;;;19.30;90.90;;;;;;4936685;29;20337;-71
2022/09/19 03:13:06;;;;;;;;;;;19.30;91.40;;;;;;4936125;29;19911;-71
2022/09/19 03:16:01;;;;;;;;;;;19.40;91.10;;;;;;4936572;29;19962;-70
2022/09/19 03:18:30;;;;;;;;;;;19.40;91.50;;;;;;4935475;29;20003;-70
2022/09/19 03:20:59;;;;;;;;;;;19.50;91.50;;;;;;4936687;29;19911;-70
2022/09/19 03:23:29;;;;;;;;;;;19.40;90.80;;;;;;4936287;29;19934;-72
2022/09/19 03:25:56;;;;;;;;;;;19.50;91.00;;;;;;4936814;29;19911;-71
2022/09/19 03:28:23;;;;;;;;;;;19.50;91.20;;;;;;4955241;28;19922;-71
2022/09/19 03:30:49;;;;;;;;;;;19.50;91.10;;;;;;4945749;29;20293;-71
2022/09/19 03:33:17;;;;;;;;;;;19.60;90.60;;;;;;4935967;29;20013;-72
2022/09/19 03:35:44;;;;;;;;;;;19.60;91.10;;;;;;4936277;29;19964;-71
2022/09/19 03:38:11;;;;;;;;;;;19.70;89.80;;;;;;4936092;29;20017;-73
2022/09/19 03:40:37;;;;;;;;;;;19.70;90.30;;;;;;4936016;29;19966;-73
2022/09/19 03:43:05;;;;;;;;;;;19.70;89.80;;;;;;4935451;29;19978;-72
2022/09/19 03:45:31;;;;;;;;;;;19.90;90.70;;;;;;4935663;29;20302;-74
2022/09/19 03:47:58;;;;;;;;;;;20.00;90.90;;;;;;4936062;29;20259;-71
2022/09/19 03:50:25;;;;;;;;;;;19.90;90.30;;;;;;4934567;29;19922;-73
2022/09/19 03:52:51;;;;;;;;;;;20.00;90.20;;;;;;4935705;29;19941;-75
2022/09/19 03:55:18;;;;;;;;;;;19.90;90.00;;;;;;4935509;29;19982;-74
2022/09/19 03:57:45;;;;;;;;;;;19.80;90.30;;;;;;4935693;29;19937;-72
2022/09/19 04:00:12;;;;;;;;;;;19.80;90.20;;;;;;4935404;29;20432;-69
2022/09/19 04:02:38;;;;;;;;;;;19.70;89.40;;;;;;4935253;29;19911;-69
2022/09/19 04:05:05;;;;;;;;;;;19.70;90.10;;;;;;4935311;29;20285;-72
2022/09/19 04:07:32;;;;;;;;;;;19.70;89.50;;;;;;4935324;29;19918;-71
2022/09/19 04:09:58;;;;;;;;;;;19.80;89.40;;;;;;4935831;29;19954;-72
2022/09/19 04:12:25;;;;;;;;;;;19.90;90.00;;;;;;4936006;29;19915;-70
2022/09/19 04:14:56;;;;;;;;;;;19.90;90.00;;;;;;4935272;29;19919;-72
2022/09/19 04:17:22;;;;;;;;;;;19.90;90.20;;;;;;4934962;29;20030;-68
2022/09/19 04:19:50;;;;;;;;;;;19.80;89.50;;;;;;4935249;29;20390;-70
2022/09/19 04:22:18;;;;;;;;;;;19.80;89.80;;;;;;4935270;29;20310;-73
2022/09/19 04:24:45;;;;;;;;;;;19.90;89.90;;;;;;4935574;29;19911;-72
2022/09/19 04:27:13;;;;;;;;;;;19.90;90.10;;;;;;4934956;29;20029;-73
2022/09/19 04:29:40;;;;;;;;;;;20.00;90.40;;;;;;4935291;29;19958;-72
2022/09/19 04:32:07;;;;;;;;;;;20.00;88.80;;;;;;4935030;29;20267;-73
2022/09/19 04:34:37;;;;;;;;;;;20.10;88.40;;;;;;4935118;29;19923;-75
2022/09/19 04:37:06;;;;;;;;;;;20.20;87.60;;;;;;4934916;29;20422;-72
2022/09/19 04:39:32;;;;;;;;;;;20.20;87.60;;;;;;4934606;29;19958;-73
2022/09/19 04:42:02;;;;;;;;;;;20.10;88.10;;;;;;4934809;29;20298;-70
2022/09/19 04:44:29;;;;;;;;;;;20.20;89.10;;;;;;4935194;29;19911;-72
2022/09/19 04:46:56;;;;;;;;;;;20.10;87.90;;;;;;4935108;29;20374;-69
2022/09/19 04:49:23;;;;;;;;;;;20.10;87.70;;;;;;4934818;29;19962;-72
2022/09/19 04:51:53;;;;;;;;;;;20.10;88.30;;;;;;4934831;29;19951;-73
2022/09/19 04:54:20;;;;;;;;;;;20.10;87.90;;;;;;4934942;29;19918;-72
2022/09/19 04:56:47;;;;;;;;;;;20.10;87.00;;;;;;4949624;29;20001;-73
2022/09/19 04:59:14;;;;;;;;;;;20.10;86.80;;;;;;4935434;29;19923;-71
2022/09/19 05:01:41;;;;;;;;;;;20.30;86.50;;;;;;4935271;29;19972;-72
2022/09/19 05:04:08;;;;;;;;;;;20.30;86.80;;;;;;4936643;29;19911;-73
2022/09/19 05:06:35;;;;;;;;;;;20.20;87.10;;;;;;4949285;29;20273;-71
2022/09/19 05:09:02;;;;;;;;;;;20.40;84.60;;;;;;4935765;29;19915;-74
2022/09/19 05:11:29;;;;;;;;;;;20.40;85.20;;;;;;4934551;29;19914;-73
2022/09/19 05:13:56;;;;;;;;;;;20.50;86.30;;;;;;4934879;29;19958;-73
2022/09/19 05:16:22;;;;;;;;;;;20.40;85.60;;;;;;4934164;29;19960;-73
2022/09/19 05:18:49;;;;;;;;;;;20.40;86.40;;;;;;4934645;29;19940;-69
2022/09/19 05:21:16;;;;;;;;;;;20.50;86.60;;;;;;4934480;29;19911;-68
2022/09/19 05:23:43;;;;;;;;;;;20.50;87.80;;;;;;4934701;29;19950;-72
2022/09/19 05:26:12;;;;;;;;;;;20.50;87.00;;;;;;4934704;29;19926;-71
2022/09/19 05:28:39;;;;;;;;;;;20.50;85.20;;;;;;4934613;29;19911;-72
2022/09/19 05:31:07;;;;;;;;;;;20.50;85.40;;;;;;4934278;29;19915;-74
2022/09/19 05:33:34;;;;;;;;;;;20.50;86.00;;;;;;4934137;29;19923;-71
2022/09/19 05:36:02;;;;;;;;;;;20.70;86.30;;;;;;4934486;29;19911;-72
2022/09/19 05:38:29;;;;;;;;;;;20.50;92.10;;;;;;4934249;29;19922;-74
2022/09/19 05:40:57;;;;;;;;;;;19.90;92.90;;;;;;4934575;29;19966;-73
2022/09/19 05:43:24;;;;;;;;;;;19.60;94.00;;;;;;4934031;29;19926;-73
2022/09/19 05:45:52;;;;;;;;;;;19.40;94.30;;;;;;4934661;29;20357;-72
2022/09/19 05:48:19;;;;;;;;;;;19.20;93.80;;;;;;4934525;29;19911;-74
2022/09/19 05:50:47;;;;;;;;;;;19.10;94.20;;;;;;4934648;29;19911;-74
2022/09/19 05:55:59;;;;;;;;;;;19.00;94.10;;;;;;4938393;29;19925;-70
2022/09/19 05:58:26;;;;;;;;;;;18.90;93.30;;;;;;4937802;29;20321;-70
2022/09/19 06:00:53;;;;;;;;;;;18.80;93.60;;;;;;4937807;29;19985;-72
2022/09/19 06:03:21;;;;;;;;;;;18.70;93.70;;;;;;4937254;29;20405;-74
2022/09/19 06:05:50;;;;;;;;;;;18.70;93.70;;;;;;4952197;29;20030;-73
2022/09/19 06:08:18;;;;;;;;;;;18.60;93.70;;;;;;4937459;29;19911;-71
2022/09/19 06:10:45;;;;;;;;;;;18.50;94.00;;;;;;4937752;29;19980;-71
2022/09/19 06:13:12;;;;;;;;;;;18.40;93.90;;;;;;4936548;29;19911;-72
2022/09/19 06:15:39;;;;;;;;;;;18.40;94.30;;;;;;4918570;29;19958;-71
2022/09/19 06:18:06;;;;;;;;;;;18.30;93.80;;;;;;4918249;29;19911;-70
2022/09/19 06:20:32;;;;;;;;;;;18.30;93.90;;;;;;4934435;29;19918;-70
2022/09/19 06:23:03;;;;;;;;;;;18.20;93.70;;;;;;4937329;29;20401;-71
2022/09/19 06:25:30;;;;;;;;;;;18.20;93.70;;;;;;4937245;29;20010;-71
2022/09/19 06:27:59;;;;;;;;;;;18.20;94.10;;;;;;4937503;29;19915;-71
2022/09/19 06:30:27;;;;;;;;;;;18.10;94.20;;;;;;4937368;29;19911;-71
2022/09/19 06:32:55;;;;;;;;;;;18.10;94.20;;;;;;4936890;29;19914;-70
2022/09/19 06:35:22;;;;;;;;;;;18.10;93.80;;;;;;4937265;29;20740;-71
2022/09/19 06:37:49;;;;;;;;;;;18.00;94.50;;;;;;4937453;29;19958;-72
2022/09/19 06:40:20;;;;;;;;;;;18.00;94.60;;;;;;4937814;29;19986;-72
2022/09/19 06:42:47;;;;;;;;;;;17.90;93.90;;;;;;4943920;29;19938;-71
2022/09/19 06:45:13;;;;;;;;;;;17.90;94.30;;;;;;4944306;29;20449;-72
2022/09/19 06:47:40;;;;;;;;;;;18.00;94.20;;;;;;4937444;29;19929;-72
2022/09/19 06:50:10;;;;;;;;;;;17.90;94.80;;;;;;4936928;29;20394;-69
2022/09/19 06:52:36;;;;;;;;;;;17.90;94.50;;;;;;4933914;29;20013;-70
2022/09/19 06:55:03;;;;;;;;;;;18.00;94.40;;;;;;4934820;29;19922;-70
2022/09/19 06:57:30;;;;;;;;;;;17.90;94.20;;;;;;4935030;29;20350;-74
2022/09/19 06:59:56;;;;;;;;;;;17.90;93.90;;;;;;4936567;29;19970;-71
2022/09/19 07:02:23;;;;;;;;;;;17.80;93.80;;;;;;4935102;29;19974;-72
2022/09/19 07:04:52;;;;;;;;;;;17.80;94.20;;;;;;4934291;29;19919;-73
2022/09/19 07:07:23;;;;;;;;;;;17.70;94.50;;;;;;4934015;29;20291;-74
2022/09/19 07:09:49;;;;;;;;;;;17.70;94.70;;;;;;4934785;29;19919;-73
2022/09/19 07:12:18;;;;;;;;;;;17.70;94.60;;;;;;4934602;29;19974;-70
2022/09/19 07:14:44;;;;;;;;;;;17.60;94.90;;;;;;4934668;29;20030;-71
2022/09/19 07:17:15;;;;;;;;;;;17.60;95.20;;;;;;4934102;29;20445;-71
2022/09/19 07:19:44;;;;;;;;;;;17.50;95.00;;;;;;4934774;29;20653;-71
2022/09/19 07:22:14;;;;;;;;;;;17.50;95.00;;;;;;4934194;29;19963;-72
2022/09/19 07:24:40;;;;;;;;;;;17.40;94.70;;;;;;4935248;29;19910;-72
2022/09/19 07:27:07;;;;;;;;;;;17.40;95.10;;;;;;4934778;29;19911;-74
2022/09/19 07:29:37;;;;;;;;;;;17.30;95.00;;;;;;4934453;29;19910;-71
2022/09/19 07:32:04;;;;;;;;;;;17.30;95.10;;;;;;4933665;29;20326;-73
2022/09/19 07:34:32;;;;;;;;;;;17.30;95.50;;;;;;4934911;29;19929;-73
2022/09/19 07:36:58;;;;;;;;;;;17.20;95.30;;;;;;4934035;29;20383;-74
2022/09/19 07:39:25;;;;;;;;;;;17.30;95.80;;;;;;4934449;29;19914;-73
2022/09/19 07:41:52;;;;;;;;;;;17.20;95.10;;;;;;4934128;29;19915;-72
2022/09/19 07:44:19;;;;;;;;;;;17.20;95.20;;;;;;4934009;29;19961;-74
2022/09/19 07:49:35;;;;;;;;;;;17.10;94.50;;;;;;4934560;29;19921;-70
2022/09/19 07:52:03;;;;;;;;;;;17.10;94.70;;;;;;4933708;29;19914;-74
2022/09/19 07:54:33;;;;;;;;;;;17.10;95.00;;;;;;4934224;29;19919;-71
2022/09/19 07:57:00;;;;;;;;;;;17.00;94.70;;;;;;4933769;29;19917;-73
2022/09/19 07:59:27;;;;;;;;;;;17.00;95.00;;;;;;4933684;29;20626;-73
2022/09/19 08:01:54;;;;;;;;;;;16.90;94.90;;;;;;4933711;29;19918;-72
2022/09/19 08:04:21;;;;;;;;;;;16.90;95.30;;;;;;4933974;29;19914;-72
2022/09/19 08:06:48;;;;;;;;;;;16.90;95.50;;;;;;4933992;29;19922;-72
2022/09/19 08:09:14;;;;;;;;;;;16.90;95.70;;;;;;4933459;29;19929;-75
2022/09/19 08:11:41;;;;;;;;;;;16.80;95.90;;;;;;4934050;29;19919;-73
2022/09/19 08:14:08;;;;;;;;;;;16.80;96.20;;;;;;4934078;29;19918;-74
2022/09/19 08:16:35;;;;;;;;;;;16.70;96.50;;;;;;4949940;29;19915;-72
2022/09/19 08:19:01;;;;;;;;;;;16.70;96.50;;;;;;4940248;29;19939;-72
2022/09/19 08:21:30;;;;;;;;;;;16.60;96.90;;;;;;4935306;29;19915;-72
2022/09/19 08:23:57;;;;;;;;;;;16.60;97.00;;;;;;4933290;29;19922;-71
2022/09/19 08:26:24;;;;;;;;;;;16.60;96.80;;;;;;4933520;29;19914;-67
2022/09/19 08:28:51;;;;;;;;;;;16.60;96.90;;;;;;4933090;29;19914;-72
2022/09/19 08:31:18;;;;;;;;;;;16.50;97.00;;;;;;4932745;29;19922;-72
2022/09/19 08:33:47;;;;;;;;;;;16.60;97.00;;;;;;4933014;29;19925;-71
2022/09/19 08:36:14;;;;;;;;;;;16.50;97.30;;;;;;4932451;29;19915;-69
2022/09/19 08:38:41;;;;;;;;;;;16.50;97.10;;;;;;4933175;29;19917;-71
2022/09/19 08:41:22;;;;;;;;;;;16.50;98.00;;;;;;4932724;29;20379;-71
2022/09/19 08:44:06;;;;;;;;;;;16.40;97.90;;;;;;4933216;29;19914;-70
2022/09/19 08:46:47;;;;;;;;;;;16.40;97.20;;;;;;4933114;29;19922;-69
2022/09/19 08:49:20;;;;;;;;;;;16.40;98.00;;;;;;4932646;29;20359;-71
2022/09/19 08:51:52;;;;;;;;;;;16.30;97.40;;;;;;4932414;29;20263;-73
2022/09/19 08:54:18;;;;;;;;;;;16.30;97.80;;;;;;4933269;29;19989;-70
2022/09/19 08:56:45;;;;;;;;;;;16.40;97.80;;;;;;4933319;29;20281;-71
2022/09/19 08:59:15;;;;;;;;;;;16.40;98.00;;;;;;4933614;29;19915;-69
2022/09/19 09:01:41;;;;;;;;;;;16.30;97.90;;;;;;4932315;29;19919;-70
2022/09/19 09:04:14;;;;;;;;;;;16.30;98.10;;;;;;4932957;29;19917;-73
2022/09/19 09:07:01;;;;;;;;;;;16.30;98.50;;;;;;4932794;29;20014;-72
2022/09/19 09:09:46;;;;;;;;;;;16.20;99.00;;;;;;4933923;29;19910;-73
2022/09/19 09:12:19;;;;;;;;;;;16.20;98.90;;;;;;4934761;29;20474;-73
2022/09/19 09:15:03;;;;;;;;;;;16.20;98.90;;;;;;4935094;29;19923;-70
2022/09/19 09:17:33;;;;;;;;;;;16.10;99.50;;;;;;4935910;29;20046;-68
2022/09/19 09:20:08;;;;;;;;;;;16.10;99.80;;;;;;4939183;29;19911;-68
2022/09/19 09:22:44;;;;;;;;;;;16.10;99.80;;;;;;4938849;29;19911;-69
2022/09/19 09:25:14;;;;;;;;;;;16.10;99.90;;;;;;4938612;29;19911;-67
2022/09/19 09:27:51;;;;;;;;;;;16.00;99.90;;;;;;4942263;29;19921;-70
2022/09/19 09:30:20;;;;;;;;;;;16.00;99.90;;;;;;4944007;29;19915;-70
2022/09/19 09:33:07;;;;;;;;;;;16.00;99.90;;;;;;4943055;29;19953;-73
2022/09/19 09:35:34;;;;;;;;;;;16.00;99.90;;;;;;4939100;29;19961;-69
2022/09/19 09:38:08;;;;;;;;;;;15.90;99.90;;;;;;4939266;29;19993;-71
2022/09/19 09:43:23;;;;;;;;;;;15.90;99.90;;;;;;4939341;29;19922;-72
2022/09/19 09:45:51;;;;;;;;;;;15.90;99.90;;;;;;4938189;29;19922;-70
2022/09/19 09:48:26;;;;;;;;;;;15.90;99.90;;;;;;4938655;29;19970;-70
2022/09/19 09:51:11;;;;;;;;;;;15.90;99.90;;;;;;4940480;29;19921;-72
2022/09/19 09:53:57;;;;;;;;;;;15.90;99.90;;;;;;4949781;29;19918;-72
2022/09/19 09:56:27;;;;;;;;;;;15.80;99.90;;;;;;4945552;29;19911;-71
2022/09/19 10:03:34;;;;;;;;;;;15.80;99.90;;;;;;4951879;29;19954;-71
2022/09/19 10:04:53;;;;;;;;;;;15.70;99.90;;;;;;4938062;29;19918;-72
2022/09/19 10:07:27;;;;;;;;;;;15.70;99.90;;;;;;4937684;29;20010;-71
2022/09/19 10:09:57;;;;;;;;;;;15.70;99.90;;;;;;4938080;29;20005;-73
2022/09/19 10:12:32;;;;;;;;;;;15.70;99.90;;;;;;4937614;29;20338;-74
2022/09/19 10:15:06;;;;;;;;;;;15.70;99.90;;;;;;4939800;29;19925;-71
2022/09/19 10:17:37;;;;;;;;;;;15.70;99.90;;;;;;4956218;29;19915;-73
2022/09/19 10:20:08;;;;;;;;;;;15.70;99.90;;;;;;4956610;29;19929;-71
2022/09/19 10:22:34;;;;;;;;;;;15.70;99.90;;;;;;4948074;29;19934;-69
2022/09/19 10:25:08;;;;;;;;;;;15.60;99.90;;;;;;4942616;29;20331;-71
2022/09/19 10:27:38;;;;;;;;;;;15.70;99.90;;;;;;4944968;29;19915;-73
2022/09/19 10:30:26;;;;;;;;;;;15.60;99.90;;;;;;4935720;29;19942;-70
2022/09/19 10:32:54;;;;;;;;;;;15.60;99.90;;;;;;4924059;29;19942;-72
2022/09/19 10:35:34;;;;;;;;;;;15.50;99.90;;;;;;4916241;29;20354;-71
2022/09/19 10:38:14;;;;;;;;;;;15.50;99.90;;;;;;4915733;29;19911;-72
2022/09/19 10:40:56;;;;;;;;;;;15.50;99.90;;;;;;4915969;29;20305;-72
2022/09/19 10:43:51;;;;;;;;;;;15.50;99.90;;;;;;4918485;29;19965;-69
2022/09/19 10:46:20;;;;;;;;;;;15.50;99.90;;;;;;4906594;29;19939;-71
2022/09/19 10:48:51;;;;;;;;;;;15.50;99.90;;;;;;4919156;29;19915;-68
2022/09/19 10:51:18;;;;;;;;;;;15.50;99.90;;;;;;4918583;29;19911;-69
2022/09/19 10:53:46;;;;;;;;;;;15.50;99.90;;;;;;4917532;29;20018;-69
2022/09/19 10:56:25;;;;;;;;;;;15.50;99.90;;;;;;4917414;29;20402;-68
2022/09/19 10:59:06;;;;;;;;;;;15.50;99.90;;;;;;4916178;29;20341;-70
2022/09/19 11:01:33;;;;;;;;;;;15.50;99.90;;;;;;4916185;29;19926;-69
2022/09/19 11:04:22;;;;;;;;;;;15.50;99.90;;;;;;4916250;29;19915;-69
2022/09/19 11:06:59;;;;;;;;;;;15.50;99.90;;;;;;4916335;29;19911;-70
2022/09/19 11:09:27;;;;;;;;;;;15.50;99.90;;;;;;4915530;29;20370;-68
2022/09/19 11:12:03;;;;;;;;;;;15.50;99.90;;;;;;4915675;29;19938;-69
2022/09/19 11:14:36;;;;;;;;;;;15.50;99.90;;;;;;4916030;29;19915;-69
2022/09/19 11:17:21;;;;;;;;;;;15.60;99.90;;;;;;4916044;29;19946;-70
2022/09/19 11:19:49;;;;;;;;;;;15.50;99.90;;;;;;4925909;29;19967;-69
2022/09/19 11:22:25;;;;;;;;;;;15.60;99.90;;;;;;4934669;29;19922;-70
2022/09/19 11:25:02;;;;;;;;;;;15.50;99.90;;;;;;4936985;29;20283;-71
2022/09/19 11:27:34;;;;;;;;;;;15.50;99.90;;;;;;4944955;29;19998;-69
2022/09/19 11:30:19;;;;;;;;;;;15.50;99.90;;;;;;4934498;29;19915;-70
2022/09/19 11:32:56;;;;;;;;;;;15.50;99.90;;;;;;4934153;29;20289;-69
2022/09/19 11:35:28;;;;;;;;;;;15.40;99.90;;;;;;4933988;29;19937;-68
2022/09/19 11:38:15;;;;;;;;;;;15.40;99.90;;;;;;4934166;29;19988;-70
2022/09/19 11:40:59;;;;;;;;;;;15.50;99.90;;;;;;4933458;29;19933;-69
2022/09/19 11:43:44;;;;;;;;;;;15.40;99.90;;;;;;4934082;29;19911;-69
2022/09/19 11:46:43;;;;;;;;;;;15.40;99.90;;;;;;4934664;29;19958;-68
2022/09/19 11:49:10;;;;;;;;;;;15.40;99.90;;;;;;4911344;29;20009;-68
2022/09/19 11:52:01;;;;;;;;;;;15.40;99.90;;;;;;4932950;29;19954;-67
2022/09/19 11:54:54;;;;;;;;;;;15.40;99.90;;;;;;4930388;29;19919;-68
2022/09/19 11:57:37;;;;;;;;;;;15.30;99.90;;;;;;4920358;29;20373;-67
2022/09/19 12:00:12;;;;;;;;;;;15.20;99.90;;;;;;4935934;29;20457;-68
2022/09/19 12:02:58;;;;;;;;;;;15.20;99.90;;;;;;4935682;29;19911;-69
2022/09/19 12:05:42;;;;;;;;;;;15.20;99.90;;;;;;4935513;29;19954;-68
2022/09/19 12:08:19;;;;;;;;;;;15.10;99.90;;;;;;4935789;29;20275;-69
2022/09/19 12:10:57;;;;;;;;;;;15.10;99.90;;;;;;4934778;29;20393;-68
2022/09/19 12:13:42;;;;;;;;;;;15.00;99.90;;;;;;4935466;29;20301;-68
2022/09/19 12:16:20;;;;;;;;;;;15.10;99.90;;;;;;4935838;29;19919;-68
2022/09/19 12:18:50;;;;;;;;;;;15.00;99.90;;;;;;4935655;29;19918;-69
2022/09/19 12:21:19;;;;;;;;;;;15.00;99.90;;;;;;4934906;29;19915;-69
2022/09/19 12:26:49;;;;;;;;;;;15.00;99.90;;;;;;4935639;29;19970;-70
2022/09/19 12:29:34;;;;;;;;;;;15.10;99.90;;;;;;4935171;29;19917;-68
2022/09/19 12:32:14;;;;;;;;;;;15.10;99.90;;;;;;4934987;29;19911;-68
2022/09/19 12:34:47;;;;;;;;;;;15.10;99.90;;;;;;4935324;29;19930;-70
2022/09/19 12:37:28;;;;;;;;;;;15.10;99.90;;;;;;4935273;29;19914;-68
2022/09/19 12:40:15;;;;;;;;;;;15.10;99.90;;;;;;4934687;29;19918;-70
2022/09/19 12:42:49;;;;;;;;;;;15.10;99.90;;;;;;4934660;29;19919;-70
2022/09/19 12:45:16;;;;;;;;;;;15.10;99.90;;;;;;4934702;29;20281;-69
2022/09/19 12:47:54;;;;;;;;;;;15.10;99.90;;;;;;4935367;29;19915;-72
2022/09/19 12:50:23;;;;;;;;;;;15.10;99.90;;;;;;4935368;29;19910;-72
2022/09/19 12:52:57;;;;;;;;;;;15.00;99.90;;;;;;4935918;29;20219;-74
2022/09/19 12:55:35;;;;;;;;;;;15.10;99.90;;;;;;4935652;29;19926;-70
2022/09/19 12:58:14;;;;;;;;;;;15.10;99.90;;;;;;4935991;29;20381;-72
2022/09/19 13:00:45;;;;;;;;;;;15.10;99.90;;;;;;4935389;29;20370;-73
2022/09/19 13:03:15;;;;;;;;;;;15.10;99.90;;;;;;4953285;29;19937;-72
2022/09/19 13:05:49;;;;;;;;;;;15.10;99.90;;;;;;4937189;29;19918;-72
2022/09/19 13:08:22;;;;;;;;;;;15.00;99.90;;;;;;4934471;29;19910;-72
2022/09/19 13:10:54;;;;;;;;;;;15.00;99.90;;;;;;4934926;29;19953;-71
2022/09/19 13:13:47;;;;;;;;;;;14.90;99.90;;;;;;4934676;29;19914;-73
2022/09/19 13:16:16;;;;;;;;;;;14.90;99.90;;;;;;4934922;29;19915;-70
2022/09/19 13:24:44;;;;;;;;;;;14.80;99.90;;;;;;4934736;29;19996;-69
2022/09/19 13:27:12;;;;;;;;;;;14.70;99.90;;;;;;4934792;29;19923;-67
2022/09/19 13:29:45;;;;;;;;;;;14.70;99.90;;;;;;4934646;29;19919;-68
2022/09/19 13:32:26;;;;;;;;;;;14.70;99.70;;;;;;4934325;29;19911;-68
2022/09/19 13:35:14;;;;;;;;;;;14.70;99.70;;;;;;4934549;29;20010;-71
2022/09/19 13:37:43;;;;;;;;;;;14.70;99.90;;;;;;4934645;29;20317;-69
2022/09/19 13:40:17;;;;;;;;;;;14.60;99.90;;;;;;4934552;29;19917;-68
2022/09/19 13:42:51;;;;;;;;;;;14.60;99.90;;;;;;4934182;29;19915;-70
2022/09/19 13:45:27;;;;;;;;;;;14.60;99.90;;;;;;4934328;29;19911;-67
2022/09/19 13:47:57;;;;;;;;;;;14.60;99.90;;;;;;4933913;29;20009;-69
2022/09/19 13:50:42;;;;;;;;;;;14.50;99.90;;;;;;4934293;29;19955;-68
2022/09/19 13:53:22;;;;;;;;;;;14.40;99.70;;;;;;4934279;29;19911;-69
2022/09/19 13:56:00;;;;;;;;;;;14.40;99.60;;;;;;4934508;29;19919;-69
2022/09/19 13:58:32;;;;;;;;;;;14.50;99.60;;;;;;4934556;29;19915;-72
2022/09/19 14:01:21;;;;;;;;;;;14.40;99.90;;;;;;4933938;29;19929;-68
2022/09/19 14:03:52;;;;;;;;;;;14.50;99.90;;;;;;4934259;29;19945;-70
2022/09/19 14:06:27;;;;;;;;;;;14.40;99.90;;;;;;4934544;29;19919;-68
2022/09/19 14:09:12;;;;;;;;;;;14.40;99.80;;;;;;4934226;29;19910;-68
2022/09/19 14:11:40;;;;;;;;;;;14.30;99.70;;;;;;4933931;29;19915;-70
2022/09/19 14:14:25;;;;;;;;;;;14.30;99.60;;;;;;4936253;29;20059;-68
2022/09/19 14:17:10;;;;;;;;;;;14.30;99.70;;;;;;4937775;29;20001;-69
2022/09/19 14:19:44;;;;;;;;;;;14.30;99.70;;;;;;4937464;29;19915;-67
2022/09/19 14:22:32;;;;;;;;;;;14.20;99.10;;;;;;4936519;29;19915;-67
2022/09/19 14:25:03;;;;;;;;;;;14.20;99.30;;;;;;4936912;29;20282;-68
2022/09/19 14:27:48;;;;;;;;;;;14.10;99.30;;;;;;4937637;29;19911;-68
2022/09/19 14:30:19;;;;;;;;;;;14.00;99.30;;;;;;4937281;29;20258;-68
2022/09/19 14:32:54;;;;;;;;;;;13.90;99.50;;;;;;4937100;29;19915;-69
2022/09/19 14:35:41;;;;;;;;;;;13.80;99.10;;;;;;4936939;29;20734;-67
2022/09/19 14:38:26;;;;;;;;;;;13.80;99.20;;;;;;4938529;29;20012;-69
2022/09/19 14:41:05;;;;;;;;;;;13.80;99.60;;;;;;4947265;29;19990;-68
2022/09/19 14:43:49;;;;;;;;;;;13.70;99.80;;;;;;4940804;29;20005;-68
2022/09/19 14:46:18;;;;;;;;;;;13.70;99.90;;;;;;4937315;29;19911;-68
2022/09/19 14:49:14;;;;;;;;;;;13.70;99.90;;;;;;4937155;29;19994;-68
2022/09/19 14:51:46;;;;;;;;;;;13.70;99.90;;;;;;4924262;29;20374;-71
2022/09/19 14:54:20;;;;;;;;;;;13.70;99.90;;;;;;4937178;29;19974;-70
2022/09/19 14:57:04;;;;;;;;;;;13.70;99.90;;;;;;4938041;29;19969;-71
2022/09/19 14:59:32;;;;;;;;;;;13.70;99.90;;;;;;4937842;29;19930;-73
2022/09/19 15:02:18;;;;;;;;;;;13.80;99.90;;;;;;4937900;29;19926;-71
2022/09/19 15:04:48;;;;;;;;;;;13.80;99.90;;;;;;4936254;29;20063;-71
2022/09/19 15:07:16;;;;;;;;;;;13.80;99.90;;;;;;4937843;29;19910;-71